sensor_id;sensor_type;location;lat;lon;timestamp;temperature;humidity
10419;DHT22;5256;48.728;9.140;2022-07-29T00:01:32;18.00;99.90
10419;DHT22;5256;48.728;9.140;2022-07-29T00:03:58;18.00;99.90
10419;DHT22;5256;48.728;9.140;2022-07-29T00:06:23;18.00;99.90
10419;DHT22;5256;48.728;9.140;2022-07-29T00:08:49;18.00;99.90
10419;DHT22;5256;48.728;9.140;2022-07-29T00:11:15;18.00;99.90
10419;DHT22;5256;48.728;9.140;2022-07-29T00:13:40;18.00;99.90
10419;DHT22;5256;48.728;9.140;2022-07-29T00:16:06;17.90;99.90
10419;DHT22;5256;48.728;9.140;2022-07-29T00:18:31;17.80;99.90
10419;DHT22;5256;48.728;9.140;2022-07-29T00:20:57;17.70;99.90
10419;DHT22;5256;48.728;9.140;2022-07-29T00:23:22;17.70;99.90
10419;DHT22;5256;48.728;9.140;2022-07-29T00:25:48;17.60;99.90
10419;DHT22;5256;48.728;9.140;2022-07-29T00:28:14;17.60;99.90
10419;DHT22;5256;48.728;9.140;2022-07-29T00:30:39;17.50;99.90
10419;DHT22;5256;48.728;9.140;2022-07-29T00:33:07;17.40;99.90
10419;DHT22;5256;48.728;9.140;2022-07-29T00:35:32;17.40;99.90
10419;DHT22;5256;48.728;9.140;2022-07-29T00:38:15;17.40;99.90
10419;DHT22;5256;48.728;9.140;2022-07-29T00:40:41;17.40;99.90
10419;DHT22;5256;48.728;9.140;2022-07-29T00:43:07;17.30;99.90
10419;DHT22;5256;48.728;9.140;2022-07-29T00:45:33;17.30;99.90
10419;DHT22;5256;48.728;9.140;2022-07-29T00:47:59;17.20;99.90
10419;DHT22;5256;48.728;9.140;2022-07-29T00:50:25;17.20;99.90
10419;DHT22;5256;48.728;9.140;2022-07-29T00:52:50;17.20;99.90
10419;DHT22;5256;48.728;9.140;2022-07-29T00:55:17;17.20;99.90
10419;DHT22;5256;48.728;9.140;2022-07-29T00:57:44;17.10;99.90
10419;DHT22;5256;48.728;9.140;2022-07-29T01:00:13;17.10;99.90
10419;DHT22;5256;48.728;9.140;2022-07-29T01:02:40;17.10;99.90
10419;DHT22;5256;48.728;9.140;2022-07-29T01:05:06;17.10;99.90
10419;DHT22;5256;48.728;9.140;2022-07-29T01:07:34;17.00;99.90
10419;DHT22;5256;48.728;9.140;2022-07-29T01:10:01;17.00;99.90
10419;DHT22;5256;48.728;9.140;2022-07-29T01:12:28;17.00;99.90
10419;DHT22;5256;48.728;9.140;2022-07-29T01:14:59;17.00;99.90
10419;DHT22;5256;48.728;9.140;2022-07-29T01:17:44;16.90;99.90
10419;DHT22;5256;48.728;9.140;2022-07-29T01:20:56;16.90;99.90
10419;DHT22;5256;48.728;9.140;2022-07-29T01:26:42;16.80;99.90
10419;DHT22;5256;48.728;9.140;2022-07-29T01:29:18;16.80;99.90
10419;DHT22;5256;48.728;9.140;2022-07-29T01:31:56;16.80;99.90
10419;DHT22;5256;48.728;9.140;2022-07-29T01:37:22;16.70;99.90
10419;DHT22;5256;48.728;9.140;2022-07-29T01:39:50;16.60;99.90
10419;DHT22;5256;48.728;9.140;2022-07-29T01:42:36;16.70;99.90
10419;DHT22;5256;48.728;9.140;2022-07-29T01:48:06;16.50;99.90
10419;DHT22;5256;48.728;9.140;2022-07-29T01:50:47;16.50;99.90
10419;DHT22;5256;48.728;9.140;2022-07-29T01:53:16;16.40;99.90
10419;DHT22;5256;48.728;9.140;2022-07-29T01:55:48;16.40;99.90
10419;DHT22;5256;48.728;9.140;2022-07-29T01:58:15;16.30;99.90
10419;DHT22;5256;48.728;9.140;2022-07-29T02:00:43;16.30;99.90
10419;DHT22;5256;48.728;9.140;2022-07-29T02:03:12;16.30;99.90
10419;DHT22;5256;48.728;9.140;2022-07-29T02:05:41;16.30;99.90
10419;DHT22;5256;48.728;9.140;2022-07-29T02:08:08;16.30;99.90
10419;DHT22;5256;48.728;9.140;2022-07-29T02:10:36;16.30;99.90
10419;DHT22;5256;48.728;9.140;2022-07-29T02:13:03;16.30;99.90
10419;DHT22;5256;48.728;9.140;2022-07-29T02:15:31;16.30;99.90
10419;DHT22;5256;48.728;9.140;2022-07-29T02:18:05;16.30;99.90
10419;DHT22;5256;48.728;9.140;2022-07-29T02:20:31;16.20;99.90
10419;DHT22;5256;48.728;9.140;2022-07-29T02:22:58;16.20;99.90
10419;DHT22;5256;48.728;9.140;2022-07-29T02:25:25;16.20;99.90
10419;DHT22;5256;48.728;9.140;2022-07-29T02:27:52;16.20;99.90
10419;DHT22;5256;48.728;9.140;2022-07-29T02:30:20;16.20;99.90
10419;DHT22;5256;48.728;9.140;2022-07-29T02:32:48;16.20;99.90
10419;DHT22;5256;48.728;9.140;2022-07-29T02:35:15;16.20;99.90
10419;DHT22;5256;48.728;9.140;2022-07-29T02:37:44;16.20;99.90
10419;DHT22;5256;48.728;9.140;2022-07-29T02:40:14;16.30;99.90
10419;DHT22;5256;48.728;9.140;2022-07-29T02:42:42;16.30;99.90
10419;DHT22;5256;48.728;9.140;2022-07-29T02:45:09;16.30;99.90
10419;DHT22;5256;48.728;9.140;2022-07-29T02:47:43;16.30;99.90
10419;DHT22;5256;48.728;9.140;2022-07-29T02:50:12;16.40;99.90
10419;DHT22;5256;48.728;9.140;2022-07-29T02:52:48;16.40;99.90
10419;DHT22;5256;48.728;9.140;2022-07-29T02:58:27;16.50;99.90
10419;DHT22;5256;48.728;9.140;2022-07-29T03:00:57;16.50;99.90
10419;DHT22;5256;48.728;9.140;2022-07-29T03:03:25;16.40;99.90
10419;DHT22;5256;48.728;9.140;2022-07-29T03:05:57;16.40;99.90
10419;DHT22;5256;48.728;9.140;2022-07-29T03:08:26;16.40;99.90
10419;DHT22;5256;48.728;9.140;2022-07-29T03:10:52;16.50;99.90
10419;DHT22;5256;48.728;9.140;2022-07-29T03:13:19;16.50;99.90
10419;DHT22;5256;48.728;9.140;2022-07-29T03:15:45;16.60;99.90
10419;DHT22;5256;48.728;9.140;2022-07-29T03:18:12;16.50;99.90
10419;DHT22;5256;48.728;9.140;2022-07-29T03:20:39;16.50;99.90
10419;DHT22;5256;48.728;9.140;2022-07-29T03:23:05;16.40;99.90
10419;DHT22;5256;48.728;9.140;2022-07-29T03:25:30;16.50;99.90
10419;DHT22;5256;48.728;9.140;2022-07-29T03:27:56;16.50;99.90
10419;DHT22;5256;48.728;9.140;2022-07-29T03:30:22;16.60;99.90
10419;DHT22;5256;48.728;9.140;2022-07-29T03:32:49;16.50;99.90
10419;DHT22;5256;48.728;9.140;2022-07-29T03:35:15;16.50;99.90
10419;DHT22;5256;48.728;9.140;2022-07-29T03:37:42;16.50;99.90
10419;DHT22;5256;48.728;9.140;2022-07-29T03:40:10;16.50;99.90
10419;DHT22;5256;48.728;9.140;2022-07-29T03:42:38;16.40;99.90
10419;DHT22;5256;48.728;9.140;2022-07-29T03:45:10;16.40;99.90
10419;DHT22;5256;48.728;9.140;2022-07-29T03:47:42;16.40;99.90
10419;DHT22;5256;48.728;9.140;2022-07-29T03:50:11;16.30;99.90
10419;DHT22;5256;48.728;9.140;2022-07-29T03:52:38;16.20;99.90
10419;DHT22;5256;48.728;9.140;2022-07-29T03:55:04;16.30;99.90
10419;DHT22;5256;48.728;9.140;2022-07-29T03:57:30;16.30;99.90
10419;DHT22;5256;48.728;9.140;2022-07-29T03:59:57;16.40;99.90
10419;DHT22;5256;48.728;9.140;2022-07-29T04:02:24;16.30;99.90
10419;DHT22;5256;48.728;9.140;2022-07-29T04:04:51;16.40;99.90
10419;DHT22;5256;48.728;9.140;2022-07-29T04:07:17;16.40;99.90
10419;DHT22;5256;48.728;9.140;2022-07-29T04:09:42;16.40;99.90
10419;DHT22;5256;48.728;9.140;2022-07-29T04:12:08;16.50;99.90
10419;DHT22;5256;48.728;9.140;2022-07-29T04:14:34;16.50;99.90
10419;DHT22;5256;48.728;9.140;2022-07-29T04:17:01;16.60;99.90
10419;DHT22;5256;48.728;9.140;2022-07-29T04:19:27;16.60;99.90
10419;DHT22;5256;48.728;9.140;2022-07-29T04:21:52;16.70;99.90
10419;DHT22;5256;48.728;9.140;2022-07-29T04:24:18;16.60;99.90
10419;DHT22;5256;48.728;9.140;2022-07-29T04:26:46;16.70;99.90
10419;DHT22;5256;48.728;9.140;2022-07-29T04:29:12;16.80;99.90
10419;DHT22;5256;48.728;9.140;2022-07-29T04:31:39;16.80;99.90
10419;DHT22;5256;48.728;9.140;2022-07-29T04:34:05;16.90;99.90
10419;DHT22;5256;48.728;9.140;2022-07-29T04:36:30;16.90;99.90
10419;DHT22;5256;48.728;9.140;2022-07-29T04:38:56;17.00;99.90
10419;DHT22;5256;48.728;9.140;2022-07-29T04:41:22;17.10;99.90
10419;DHT22;5256;48.728;9.140;2022-07-29T04:43:48;17.10;99.90
10419;DHT22;5256;48.728;9.140;2022-07-29T04:46:13;17.20;99.90
10419;DHT22;5256;48.728;9.140;2022-07-29T04:48:39;17.30;99.90
10419;DHT22;5256;48.728;9.140;2022-07-29T04:51:05;17.40;99.90
10419;DHT22;5256;48.728;9.140;2022-07-29T04:53:30;17.50;99.90
10419;DHT22;5256;48.728;9.140;2022-07-29T04:55:56;17.60;99.90
10419;DHT22;5256;48.728;9.140;2022-07-29T04:58:21;17.70;99.90
10419;DHT22;5256;48.728;9.140;2022-07-29T05:00:49;17.80;99.90
10419;DHT22;5256;48.728;9.140;2022-07-29T05:03:14;18.00;99.90
10419;DHT22;5256;48.728;9.140;2022-07-29T05:05:40;18.10;99.90
10419;DHT22;5256;48.728;9.140;2022-07-29T05:08:06;18.20;99.90
10419;DHT22;5256;48.728;9.140;2022-07-29T05:10:32;18.40;99.90
10419;DHT22;5256;48.728;9.140;2022-07-29T05:12:59;18.60;99.90
10419;DHT22;5256;48.728;9.140;2022-07-29T05:15:24;18.70;99.90
10419;DHT22;5256;48.728;9.140;2022-07-29T05:17:50;18.90;99.90
10419;DHT22;5256;48.728;9.140;2022-07-29T05:20:16;19.00;99.90
10419;DHT22;5256;48.728;9.140;2022-07-29T05:22:41;19.10;99.90
10419;DHT22;5256;48.728;9.140;2022-07-29T05:25:07;19.20;99.90
10419;DHT22;5256;48.728;9.140;2022-07-29T05:27:35;19.40;99.90
10419;DHT22;5256;48.728;9.140;2022-07-29T05:30:00;19.50;99.90
10419;DHT22;5256;48.728;9.140;2022-07-29T05:32:26;19.60;99.90
10419;DHT22;5256;48.728;9.140;2022-07-29T05:34:52;20.00;99.90
10419;DHT22;5256;48.728;9.140;2022-07-29T05:37:20;20.30;99.90
10419;DHT22;5256;48.728;9.140;2022-07-29T05:39:49;20.70;99.90
10419;DHT22;5256;48.728;9.140;2022-07-29T05:42:15;21.30;99.90
10419;DHT22;5256;48.728;9.140;2022-07-29T05:44:40;21.60;99.90
10419;DHT22;5256;48.728;9.140;2022-07-29T05:47:06;21.80;99.90
10419;DHT22;5256;48.728;9.140;2022-07-29T05:49:32;22.00;99.90
10419;DHT22;5256;48.728;9.140;2022-07-29T05:51:57;22.10;99.90
10419;DHT22;5256;48.728;9.140;2022-07-29T05:54:23;22.10;99.90
10419;DHT22;5256;48.728;9.140;2022-07-29T05:56:49;22.10;99.90
10419;DHT22;5256;48.728;9.140;2022-07-29T05:59:14;22.20;99.90
10419;DHT22;5256;48.728;9.140;2022-07-29T06:01:40;22.50;99.90
10419;DHT22;5256;48.728;9.140;2022-07-29T06:04:06;22.90;99.90
10419;DHT22;5256;48.728;9.140;2022-07-29T06:06:33;23.60;99.90
10419;DHT22;5256;48.728;9.140;2022-07-29T06:09:00;24.10;99.90
10419;DHT22;5256;48.728;9.140;2022-07-29T06:11:26;24.50;99.90
10419;DHT22;5256;48.728;9.140;2022-07-29T06:13:51;24.50;99.90
10419;DHT22;5256;48.728;9.140;2022-07-29T06:16:17;24.60;99.90
10419;DHT22;5256;48.728;9.140;2022-07-29T06:18:42;24.80;99.90
10419;DHT22;5256;48.728;9.140;2022-07-29T06:21:09;25.10;99.90
10419;DHT22;5256;48.728;9.140;2022-07-29T06:23:38;25.00;99.90
10419;DHT22;5256;48.728;9.140;2022-07-29T06:26:04;25.00;99.90
10419;DHT22;5256;48.728;9.140;2022-07-29T06:28:30;25.30;99.90
10419;DHT22;5256;48.728;9.140;2022-07-29T06:30:55;25.80;99.90
10419;DHT22;5256;48.728;9.140;2022-07-29T06:33:21;26.00;99.90
10419;DHT22;5256;48.728;9.140;2022-07-29T06:35:47;26.20;99.90
10419;DHT22;5256;48.728;9.140;2022-07-29T06:38:13;26.40;99.90
10419;DHT22;5256;48.728;9.140;2022-07-29T06:40:45;26.60;99.90
10419;DHT22;5256;48.728;9.140;2022-07-29T06:45:55;27.00;99.90
10419;DHT22;5256;48.728;9.140;2022-07-29T06:48:20;26.90;99.90
10419;DHT22;5256;48.728;9.140;2022-07-29T06:50:46;26.20;99.90
10419;DHT22;5256;48.728;9.140;2022-07-29T06:53:11;25.70;99.90
10419;DHT22;5256;48.728;9.140;2022-07-29T06:55:37;25.10;99.90
10419;DHT22;5256;48.728;9.140;2022-07-29T06:58:03;24.90;99.90
10419;DHT22;5256;48.728;9.140;2022-07-29T07:00:28;24.60;99.90
10419;DHT22;5256;48.728;9.140;2022-07-29T07:02:54;24.80;99.90
10419;DHT22;5256;48.728;9.140;2022-07-29T07:05:19;25.10;99.90
10419;DHT22;5256;48.728;9.140;2022-07-29T07:07:45;25.30;99.90
10419;DHT22;5256;48.728;9.140;2022-07-29T07:10:11;25.50;99.90
10419;DHT22;5256;48.728;9.140;2022-07-29T07:12:36;25.80;99.90
10419;DHT22;5256;48.728;9.140;2022-07-29T07:15:02;26.10;99.90
10419;DHT22;5256;48.728;9.140;2022-07-29T07:17:28;26.30;99.90
10419;DHT22;5256;48.728;9.140;2022-07-29T07:19:54;26.50;99.90
10419;DHT22;5256;48.728;9.140;2022-07-29T07:22:19;26.60;99.90
10419;DHT22;5256;48.728;9.140;2022-07-29T07:24:45;26.40;99.90
10419;DHT22;5256;48.728;9.140;2022-07-29T07:27:10;25.90;99.90
10419;DHT22;5256;48.728;9.140;2022-07-29T07:29:36;26.20;99.90
10419;DHT22;5256;48.728;9.140;2022-07-29T07:32:02;26.40;99.90
10419;DHT22;5256;48.728;9.140;2022-07-29T07:34:27;26.30;99.90
10419;DHT22;5256;48.728;9.140;2022-07-29T07:36:53;26.20;99.90
10419;DHT22;5256;48.728;9.140;2022-07-29T07:39:19;26.30;99.90
10419;DHT22;5256;48.728;9.140;2022-07-29T07:41:44;26.20;99.90
10419;DHT22;5256;48.728;9.140;2022-07-29T07:44:10;26.40;99.90
10419;DHT22;5256;48.728;9.140;2022-07-29T07:46:35;26.70;99.90
10419;DHT22;5256;48.728;9.140;2022-07-29T07:49:01;27.00;99.90
10419;DHT22;5256;48.728;9.140;2022-07-29T07:51:26;27.70;99.90
10419;DHT22;5256;48.728;9.140;2022-07-29T07:53:52;28.10;99.90
10419;DHT22;5256;48.728;9.140;2022-07-29T07:56:17;28.40;99.90
10419;DHT22;5256;48.728;9.140;2022-07-29T07:58:43;27.50;99.90
10419;DHT22;5256;48.728;9.140;2022-07-29T08:01:09;27.40;99.90
10419;DHT22;5256;48.728;9.140;2022-07-29T08:03:34;27.90;99.90
10419;DHT22;5256;48.728;9.140;2022-07-29T08:06:00;27.90;99.90
10419;DHT22;5256;48.728;9.140;2022-07-29T08:08:26;28.70;99.90
10419;DHT22;5256;48.728;9.140;2022-07-29T08:10:51;29.20;99.90
10419;DHT22;5256;48.728;9.140;2022-07-29T08:13:18;29.30;99.90
10419;DHT22;5256;48.728;9.140;2022-07-29T08:15:44;29.50;99.90
10419;DHT22;5256;48.728;9.140;2022-07-29T08:18:11;29.70;99.90
10419;DHT22;5256;48.728;9.140;2022-07-29T08:20:38;30.10;99.90
10419;DHT22;5256;48.728;9.140;2022-07-29T08:23:06;30.20;99.40
10419;DHT22;5256;48.728;9.140;2022-07-29T08:25:32;29.90;99.90
10419;DHT22;5256;48.728;9.140;2022-07-29T08:27:58;29.60;99.90
10419;DHT22;5256;48.728;9.140;2022-07-29T08:30:24;30.40;99.90
10419;DHT22;5256;48.728;9.140;2022-07-29T08:32:50;31.30;98.40
10419;DHT22;5256;48.728;9.140;2022-07-29T08:35:18;31.30;97.60
10419;DHT22;5256;48.728;9.140;2022-07-29T08:37:44;30.80;99.00
10419;DHT22;5256;48.728;9.140;2022-07-29T08:40:10;30.60;95.70
10419;DHT22;5256;48.728;9.140;2022-07-29T08:42:36;30.00;95.70
10419;DHT22;5256;48.728;9.140;2022-07-29T08:45:03;30.20;94.50
10419;DHT22;5256;48.728;9.140;2022-07-29T08:47:29;30.20;94.40
10419;DHT22;5256;48.728;9.140;2022-07-29T08:49:55;30.20;94.20
10419;DHT22;5256;48.728;9.140;2022-07-29T08:52:21;30.40;93.80
10419;DHT22;5256;48.728;9.140;2022-07-29T08:54:49;30.50;93.80
10419;DHT22;5256;48.728;9.140;2022-07-29T08:57:17;30.70;93.40
10419;DHT22;5256;48.728;9.140;2022-07-29T08:59:46;30.80;93.60
10419;DHT22;5256;48.728;9.140;2022-07-29T09:02:19;30.40;93.30
10419;DHT22;5256;48.728;9.140;2022-07-29T09:04:45;30.70;93.50
10419;DHT22;5256;48.728;9.140;2022-07-29T09:07:17;31.20;92.40
10419;DHT22;5256;48.728;9.140;2022-07-29T09:09:43;30.90;92.90
10419;DHT22;5256;48.728;9.140;2022-07-29T09:12:10;31.10;92.60
10419;DHT22;5256;48.728;9.140;2022-07-29T09:14:37;31.30;91.90
10419;DHT22;5256;48.728;9.140;2022-07-29T09:17:03;31.10;91.50
10419;DHT22;5256;48.728;9.140;2022-07-29T09:19:31;31.10;91.60
10419;DHT22;5256;48.728;9.140;2022-07-29T09:21:59;30.80;91.60
10419;DHT22;5256;48.728;9.140;2022-07-29T09:24:38;31.30;91.80
10419;DHT22;5256;48.728;9.140;2022-07-29T09:29:42;31.30;90.70
10419;DHT22;5256;48.728;9.140;2022-07-29T09:32:09;31.60;90.30
10419;DHT22;5256;48.728;9.140;2022-07-29T09:34:36;31.90;90.30
10419;DHT22;5256;48.728;9.140;2022-07-29T09:37:02;32.20;88.80
10419;DHT22;5256;48.728;9.140;2022-07-29T09:41:59;32.50;87.90
10419;DHT22;5256;48.728;9.140;2022-07-29T09:44:25;32.70;87.40
10419;DHT22;5256;48.728;9.140;2022-07-29T09:46:58;33.00;86.30
10419;DHT22;5256;48.728;9.140;2022-07-29T09:49:24;33.10;86.50
10419;DHT22;5256;48.728;9.140;2022-07-29T09:52:08;32.90;85.90
10419;DHT22;5256;48.728;9.140;2022-07-29T09:54:35;32.30;86.30
10419;DHT22;5256;48.728;9.140;2022-07-29T09:57:08;32.40;86.40
10419;DHT22;5256;48.728;9.140;2022-07-29T09:59:37;32.20;86.10
10419;DHT22;5256;48.728;9.140;2022-07-29T10:02:12;32.30;86.10
10419;DHT22;5256;48.728;9.140;2022-07-29T10:04:40;32.40;86.30
10419;DHT22;5256;48.728;9.140;2022-07-29T10:07:05;32.70;85.70
10419;DHT22;5256;48.728;9.140;2022-07-29T10:09:32;33.50;83.50
10419;DHT22;5256;48.728;9.140;2022-07-29T10:12:12;34.40;83.60
10419;DHT22;5256;48.728;9.140;2022-07-29T10:14:40;34.70;80.50
10419;DHT22;5256;48.728;9.140;2022-07-29T10:17:07;34.50;81.60
10419;DHT22;5256;48.728;9.140;2022-07-29T10:19:34;34.40;81.60
10419;DHT22;5256;48.728;9.140;2022-07-29T10:22:02;34.10;81.60
10419;DHT22;5256;48.728;9.140;2022-07-29T10:24:31;33.60;79.70
10419;DHT22;5256;48.728;9.140;2022-07-29T10:27:01;32.70;84.10
10419;DHT22;5256;48.728;9.140;2022-07-29T10:29:28;31.80;86.40
10419;DHT22;5256;48.728;9.140;2022-07-29T10:34:57;30.80;89.00
10419;DHT22;5256;48.728;9.140;2022-07-29T10:40:22;29.70;90.30
10419;DHT22;5256;48.728;9.140;2022-07-29T10:43:21;28.70;91.20
10419;DHT22;5256;48.728;9.140;2022-07-29T10:45:49;28.00;92.60
10419;DHT22;5256;48.728;9.140;2022-07-29T10:48:20;27.40;93.90
10419;DHT22;5256;48.728;9.140;2022-07-29T10:50:56;26.90;94.70
10419;DHT22;5256;48.728;9.140;2022-07-29T10:53:23;26.50;95.70
10419;DHT22;5256;48.728;9.140;2022-07-29T10:55:51;26.00;97.30
10419;DHT22;5256;48.728;9.140;2022-07-29T10:58:19;25.60;98.30
10419;DHT22;5256;48.728;9.140;2022-07-29T11:00:52;25.30;99.90
10419;DHT22;5256;48.728;9.140;2022-07-29T11:06:09;23.90;99.90
10419;DHT22;5256;48.728;9.140;2022-07-29T11:08:35;23.20;99.90
10419;DHT22;5256;48.728;9.140;2022-07-29T11:11:30;22.30;99.90
10419;DHT22;5256;48.728;9.140;2022-07-29T11:13:56;20.80;99.90
10419;DHT22;5256;48.728;9.140;2022-07-29T11:16:22;19.60;99.90
10419;DHT22;5256;48.728;9.140;2022-07-29T11:21:42;18.50;99.90
10419;DHT22;5256;48.728;9.140;2022-07-29T11:24:28;18.40;99.90
10419;DHT22;5256;48.728;9.140;2022-07-29T11:27:09;18.40;99.90
10419;DHT22;5256;48.728;9.140;2022-07-29T11:29:39;18.40;99.90
10419;DHT22;5256;48.728;9.140;2022-07-29T11:32:11;18.50;99.90
10419;DHT22;5256;48.728;9.140;2022-07-29T11:34:38;18.60;99.90
10419;DHT22;5256;48.728;9.140;2022-07-29T11:47:40;19.20;99.90
10419;DHT22;5256;48.728;9.140;2022-07-29T11:50:10;19.30;99.90
10419;DHT22;5256;48.728;9.140;2022-07-29T11:52:39;19.30;99.90
10419;DHT22;5256;48.728;9.140;2022-07-29T11:55:10;19.40;99.90
10419;DHT22;5256;48.728;9.140;2022-07-29T11:57:45;19.20;99.90
10419;DHT22;5256;48.728;9.140;2022-07-29T12:00:11;19.20;99.90
10419;DHT22;5256;48.728;9.140;2022-07-29T12:02:41;19.20;99.90
10419;DHT22;5256;48.728;9.140;2022-07-29T12:05:08;19.00;99.90
10419;DHT22;5256;48.728;9.140;2022-07-29T12:07:35;19.00;99.90
10419;DHT22;5256;48.728;9.140;2022-07-29T12:10:01;18.90;99.90
10419;DHT22;5256;48.728;9.140;2022-07-29T12:12:27;18.90;99.90
10419;DHT22;5256;48.728;9.140;2022-07-29T12:14:53;18.90;99.90
10419;DHT22;5256;48.728;9.140;2022-07-29T12:17:30;19.00;99.90
10419;DHT22;5256;48.728;9.140;2022-07-29T12:19:57;19.10;99.90
10419;DHT22;5256;48.728;9.140;2022-07-29T12:22:34;19.10;99.90
10419;DHT22;5256;48.728;9.140;2022-07-29T12:25:11;19.30;99.90
10419;DHT22;5256;48.728;9.140;2022-07-29T12:27:39;19.50;99.90
10419;DHT22;5256;48.728;9.140;2022-07-29T12:30:11;19.60;99.90
10419;DHT22;5256;48.728;9.140;2022-07-29T12:32:43;19.70;99.90
10419;DHT22;5256;48.728;9.140;2022-07-29T12:35:19;19.70;99.90
10419;DHT22;5256;48.728;9.140;2022-07-29T12:37:46;19.80;99.90
10419;DHT22;5256;48.728;9.140;2022-07-29T12:40:17;19.90;99.90
10419;DHT22;5256;48.728;9.140;2022-07-29T12:45:32;20.00;99.90
10419;DHT22;5256;48.728;9.140;2022-07-29T12:47:58;19.90;99.90
10419;DHT22;5256;48.728;9.140;2022-07-29T12:50:24;19.90;99.90
10419;DHT22;5256;48.728;9.140;2022-07-29T12:52:50;19.90;99.90
10419;DHT22;5256;48.728;9.140;2022-07-29T12:55:37;19.90;99.90
10419;DHT22;5256;48.728;9.140;2022-07-29T12:58:02;19.80;99.90
10419;DHT22;5256;48.728;9.140;2022-07-29T13:00:27;19.80;99.90
10419;DHT22;5256;48.728;9.140;2022-07-29T13:02:58;19.80;99.90
10419;DHT22;5256;48.728;9.140;2022-07-29T13:05:42;20.00;99.90
10419;DHT22;5256;48.728;9.140;2022-07-29T13:08:15;20.10;99.90
10419;DHT22;5256;48.728;9.140;2022-07-29T13:10:41;20.10;99.90
10419;DHT22;5256;48.728;9.140;2022-07-29T13:13:09;20.10;99.90
10419;DHT22;5256;48.728;9.140;2022-07-29T13:15:37;20.10;99.90
10419;DHT22;5256;48.728;9.140;2022-07-29T13:18:05;20.00;99.90
10419;DHT22;5256;48.728;9.140;2022-07-29T13:20:31;20.00;99.90
10419;DHT22;5256;48.728;9.140;2022-07-29T13:22:59;19.80;99.90
10419;DHT22;5256;48.728;9.140;2022-07-29T13:25:30;19.70;99.90
10419;DHT22;5256;48.728;9.140;2022-07-29T13:27:56;19.50;99.90
10419;DHT22;5256;48.728;9.140;2022-07-29T13:30:22;19.30;99.90
10419;DHT22;5256;48.728;9.140;2022-07-29T13:32:49;19.30;99.90
10419;DHT22;5256;48.728;9.140;2022-07-29T13:35:15;19.30;99.90
10419;DHT22;5256;48.728;9.140;2022-07-29T13:37:40;19.20;99.90
10419;DHT22;5256;48.728;9.140;2022-07-29T13:40:07;19.10;99.90
10419;DHT22;5256;48.728;9.140;2022-07-29T13:42:34;19.10;99.90
10419;DHT22;5256;48.728;9.140;2022-07-29T13:45:00;19.10;99.90
10419;DHT22;5256;48.728;9.140;2022-07-29T13:47:26;19.10;99.90
10419;DHT22;5256;48.728;9.140;2022-07-29T13:49:52;19.10;99.90
10419;DHT22;5256;48.728;9.140;2022-07-29T13:52:18;19.30;99.90
10419;DHT22;5256;48.728;9.140;2022-07-29T13:54:44;19.40;99.90
10419;DHT22;5256;48.728;9.140;2022-07-29T13:57:11;19.70;99.90
10419;DHT22;5256;48.728;9.140;2022-07-29T13:59:41;20.10;99.90
10419;DHT22;5256;48.728;9.140;2022-07-29T14:02:07;20.30;99.90
10419;DHT22;5256;48.728;9.140;2022-07-29T14:04:33;20.50;99.90
10419;DHT22;5256;48.728;9.140;2022-07-29T14:06:59;20.70;99.90
10419;DHT22;5256;48.728;9.140;2022-07-29T14:09:24;21.00;99.90
10419;DHT22;5256;48.728;9.140;2022-07-29T14:11:50;21.30;99.90
10419;DHT22;5256;48.728;9.140;2022-07-29T14:14:18;21.80;99.90
10419;DHT22;5256;48.728;9.140;2022-07-29T14:16:43;22.10;99.90
10419;DHT22;5256;48.728;9.140;2022-07-29T14:19:09;21.90;99.90
10419;DHT22;5256;48.728;9.140;2022-07-29T14:21:36;21.90;99.90
10419;DHT22;5256;48.728;9.140;2022-07-29T14:24:02;22.10;99.90
10419;DHT22;5256;48.728;9.140;2022-07-29T14:26:27;22.40;99.90
10419;DHT22;5256;48.728;9.140;2022-07-29T14:28:53;22.30;99.90
10419;DHT22;5256;48.728;9.140;2022-07-29T14:31:18;22.40;99.90
10419;DHT22;5256;48.728;9.140;2022-07-29T14:33:44;22.50;99.90
10419;DHT22;5256;48.728;9.140;2022-07-29T14:36:10;22.40;99.90
10419;DHT22;5256;48.728;9.140;2022-07-29T14:38:36;22.70;99.90
10419;DHT22;5256;48.728;9.140;2022-07-29T14:41:02;22.60;99.90
10419;DHT22;5256;48.728;9.140;2022-07-29T14:43:28;22.80;99.90
10419;DHT22;5256;48.728;9.140;2022-07-29T14:45:54;22.90;99.90
10419;DHT22;5256;48.728;9.140;2022-07-29T14:48:19;22.80;99.90
10419;DHT22;5256;48.728;9.140;2022-07-29T14:50:45;22.90;99.90
10419;DHT22;5256;48.728;9.140;2022-07-29T14:53:10;23.20;99.90
10419;DHT22;5256;48.728;9.140;2022-07-29T14:55:39;23.10;99.90
10419;DHT22;5256;48.728;9.140;2022-07-29T14:58:05;23.10;99.90
10419;DHT22;5256;48.728;9.140;2022-07-29T15:00:31;23.10;99.90
10419;DHT22;5256;48.728;9.140;2022-07-29T15:02:59;23.40;99.90
10419;DHT22;5256;48.728;9.140;2022-07-29T15:05:26;23.60;99.90
10419;DHT22;5256;48.728;9.140;2022-07-29T15:07:51;23.60;99.90
10419;DHT22;5256;48.728;9.140;2022-07-29T15:10:17;23.60;99.90
10419;DHT22;5256;48.728;9.140;2022-07-29T15:12:42;23.40;99.90
10419;DHT22;5256;48.728;9.140;2022-07-29T15:15:08;23.30;99.90
10419;DHT22;5256;48.728;9.140;2022-07-29T15:17:34;23.30;99.90
10419;DHT22;5256;48.728;9.140;2022-07-29T15:19:59;23.40;99.90
10419;DHT22;5256;48.728;9.140;2022-07-29T15:22:25;23.60;99.90
10419;DHT22;5256;48.728;9.140;2022-07-29T15:24:51;23.60;99.90
10419;DHT22;5256;48.728;9.140;2022-07-29T15:27:16;23.50;99.90
10419;DHT22;5256;48.728;9.140;2022-07-29T15:29:43;23.50;99.90
10419;DHT22;5256;48.728;9.140;2022-07-29T15:32:08;23.50;99.90
10419;DHT22;5256;48.728;9.140;2022-07-29T15:34:34;23.50;99.90
10419;DHT22;5256;48.728;9.140;2022-07-29T15:37:00;23.40;99.90
10419;DHT22;5256;48.728;9.140;2022-07-29T15:39:26;23.40;99.90
10419;DHT22;5256;48.728;9.140;2022-07-29T15:41:52;23.30;99.90
10419;DHT22;5256;48.728;9.140;2022-07-29T15:44:19;23.30;99.90
10419;DHT22;5256;48.728;9.140;2022-07-29T15:46:45;23.40;99.90
10419;DHT22;5256;48.728;9.140;2022-07-29T15:52:01;23.50;99.90
10419;DHT22;5256;48.728;9.140;2022-07-29T15:54:28;23.50;99.90
10419;DHT22;5256;48.728;9.140;2022-07-29T15:56:53;23.50;99.90
10419;DHT22;5256;48.728;9.140;2022-07-29T15:59:19;23.30;99.90
10419;DHT22;5256;48.728;9.140;2022-07-29T16:01:45;23.10;99.90
10419;DHT22;5256;48.728;9.140;2022-07-29T16:04:11;23.00;99.90
10419;DHT22;5256;48.728;9.140;2022-07-29T16:06:37;23.10;99.90
10419;DHT22;5256;48.728;9.140;2022-07-29T16:09:03;23.10;99.90
10419;DHT22;5256;48.728;9.140;2022-07-29T16:11:29;22.90;99.90
10419;DHT22;5256;48.728;9.140;2022-07-29T16:13:54;22.80;99.90
10419;DHT22;5256;48.728;9.140;2022-07-29T16:16:20;22.80;99.90
10419;DHT22;5256;48.728;9.140;2022-07-29T16:18:45;22.80;99.90
10419;DHT22;5256;48.728;9.140;2022-07-29T16:21:12;22.80;99.90
10419;DHT22;5256;48.728;9.140;2022-07-29T16:23:38;22.70;99.90
10419;DHT22;5256;48.728;9.140;2022-07-29T16:26:05;22.70;99.90
10419;DHT22;5256;48.728;9.140;2022-07-29T16:28:31;22.60;99.90
10419;DHT22;5256;48.728;9.140;2022-07-29T16:30:56;22.60;99.90
10419;DHT22;5256;48.728;9.140;2022-07-29T16:33:22;22.70;99.90
10419;DHT22;5256;48.728;9.140;2022-07-29T16:35:49;22.70;99.90